sensor_id;sensor_type;location;lat;lon;timestamp;P1;durP1;ratioP1;P2;durP2;ratioP2
46322;SDS011;32044;52.386;13.278;2022-12-18T00:02:02;104.63;;;34.90;;
46322;SDS011;32044;52.386;13.278;2022-12-18T00:04:29;108.93;;;34.40;;
46322;SDS011;32044;52.386;13.278;2022-12-18T00:06:54;100.65;;;34.08;;
46322;SDS011;32044;52.386;13.278;2022-12-18T00:09:20;133.40;;;36.03;;
46322;SDS011;32044;52.386;13.278;2022-12-18T00:11:45;122.55;;;35.92;;
46322;SDS011;32044;52.386;13.278;2022-12-18T00:14:11;125.60;;;36.35;;
46322;SDS011;32044;52.386;13.278;2022-12-18T00:16:37;119.82;;;35.60;;
46322;SDS011;32044;52.386;13.278;2022-12-18T00:19:03;121.10;;;34.97;;
46322;SDS011;32044;52.386;13.278;2022-12-18T00:21:29;124.38;;;37.60;;
46322;SDS011;32044;52.386;13.278;2022-12-18T00:23:56;119.18;;;34.05;;
46322;SDS011;32044;52.386;13.278;2022-12-18T00:26:23;125.13;;;37.38;;
46322;SDS011;32044;52.386;13.278;2022-12-18T00:28:52;98.45;;;27.67;;
46322;SDS011;32044;52.386;13.278;2022-12-18T00:31:19;147.13;;;38.38;;
46322;SDS011;32044;52.386;13.278;2022-12-18T00:33:47;134.02;;;35.67;;
46322;SDS011;32044;52.386;13.278;2022-12-18T00:36:13;146.75;;;32.78;;
46322;SDS011;32044;52.386;13.278;2022-12-18T00:38:40;118.47;;;32.97;;
46322;SDS011;32044;52.386;13.278;2022-12-18T00:41:06;126.15;;;34.40;;
46322;SDS011;32044;52.386;13.278;2022-12-18T00:43:32;135.05;;;36.75;;
46322;SDS011;32044;52.386;13.278;2022-12-18T00:46:00;120.35;;;33.70;;
46322;SDS011;32044;52.386;13.278;2022-12-18T00:48:25;127.20;;;37.25;;
46322;SDS011;32044;52.386;13.278;2022-12-18T00:50:51;123.15;;;34.30;;
46322;SDS011;32044;52.386;13.278;2022-12-18T00:53:16;115.95;;;31.98;;
46322;SDS011;32044;52.386;13.278;2022-12-18T00:55:42;121.32;;;33.53;;
46322;SDS011;32044;52.386;13.278;2022-12-18T00:58:08;111.65;;;33.65;;
46322;SDS011;32044;52.386;13.278;2022-12-18T01:00:34;124.97;;;33.90;;
46322;SDS011;32044;52.386;13.278;2022-12-18T01:02:59;104.47;;;32.70;;
46322;SDS011;32044;52.386;13.278;2022-12-18T01:05:25;110.38;;;32.72;;
46322;SDS011;32044;52.386;13.278;2022-12-18T01:07:50;108.28;;;35.08;;
46322;SDS011;32044;52.386;13.278;2022-12-18T01:10:15;107.22;;;32.85;;
46322;SDS011;32044;52.386;13.278;2022-12-18T01:12:41;126.53;;;31.90;;
46322;SDS011;32044;52.386;13.278;2022-12-18T01:15:06;107.82;;;32.33;;
46322;SDS011;32044;52.386;13.278;2022-12-18T01:17:33;123.28;;;32.60;;
46322;SDS011;32044;52.386;13.278;2022-12-18T01:19:58;118.30;;;30.90;;
46322;SDS011;32044;52.386;13.278;2022-12-18T01:22:23;114.07;;;32.17;;
46322;SDS011;32044;52.386;13.278;2022-12-18T01:24:49;144.35;;;33.45;;
46322;SDS011;32044;52.386;13.278;2022-12-18T01:27:14;119.60;;;33.13;;
46322;SDS011;32044;52.386;13.278;2022-12-18T01:29:39;103.28;;;30.98;;
46322;SDS011;32044;52.386;13.278;2022-12-18T01:32:05;155.43;;;36.03;;
46322;SDS011;32044;52.386;13.278;2022-12-18T01:34:30;128.10;;;32.95;;
46322;SDS011;32044;52.386;13.278;2022-12-18T01:36:55;131.07;;;36.17;;
46322;SDS011;32044;52.386;13.278;2022-12-18T01:39:20;113.82;;;31.98;;
46322;SDS011;32044;52.386;13.278;2022-12-18T01:41:46;118.68;;;32.60;;
46322;SDS011;32044;52.386;13.278;2022-12-18T01:47:45;130.85;;;33.13;;
46322;SDS011;32044;52.386;13.278;2022-12-18T01:50:13;114.88;;;31.52;;
46322;SDS011;32044;52.386;13.278;2022-12-18T01:52:42;106.95;;;30.13;;
46322;SDS011;32044;52.386;13.278;2022-12-18T01:55:10;121.10;;;32.65;;
46322;SDS011;32044;52.386;13.278;2022-12-18T01:57:36;113.22;;;30.48;;
46322;SDS011;32044;52.386;13.278;2022-12-18T02:00:05;117.57;;;33.35;;
46322;SDS011;32044;52.386;13.278;2022-12-18T02:02:35;117.13;;;31.13;;
46322;SDS011;32044;52.386;13.278;2022-12-18T02:05:02;124.53;;;31.92;;
46322;SDS011;32044;52.386;13.278;2022-12-18T02:10:27;104.63;;;33.00;;
46322;SDS011;32044;52.386;13.278;2022-12-18T02:13:05;111.47;;;33.60;;
46322;SDS011;32044;52.386;13.278;2022-12-18T02:15:39;118.13;;;31.20;;
46322;SDS011;32044;52.386;13.278;2022-12-18T02:18:14;123.53;;;35.28;;
46322;SDS011;32044;52.386;13.278;2022-12-18T02:20:45;110.72;;;33.38;;
46322;SDS011;32044;52.386;13.278;2022-12-18T02:26:02;112.85;;;33.53;;
46322;SDS011;32044;52.386;13.278;2022-12-18T02:28:33;132.73;;;34.78;;
46322;SDS011;32044;52.386;13.278;2022-12-18T02:31:01;124.55;;;33.47;;
46322;SDS011;32044;52.386;13.278;2022-12-18T02:33:28;122.85;;;33.38;;
46322;SDS011;32044;52.386;13.278;2022-12-18T02:35:54;141.55;;;37.25;;
46322;SDS011;32044;52.386;13.278;2022-12-18T02:38:21;132.80;;;36.30;;
46322;SDS011;32044;52.386;13.278;2022-12-18T02:40:47;131.35;;;35.70;;
46322;SDS011;32044;52.386;13.278;2022-12-18T02:43:14;137.43;;;34.28;;
46322;SDS011;32044;52.386;13.278;2022-12-18T02:45:47;145.10;;;35.70;;
46322;SDS011;32044;52.386;13.278;2022-12-18T02:48:21;152.40;;;37.63;;
46322;SDS011;32044;52.386;13.278;2022-12-18T02:50:58;138.93;;;36.53;;
46322;SDS011;32044;52.386;13.278;2022-12-18T02:53:37;131.73;;;36.03;;
46322;SDS011;32044;52.386;13.278;2022-12-18T02:56:12;145.43;;;38.63;;
46322;SDS011;32044;52.386;13.278;2022-12-18T03:02:05;143.50;;;40.42;;
46322;SDS011;32044;52.386;13.278;2022-12-18T03:04:43;149.95;;;39.88;;
46322;SDS011;32044;52.386;13.278;2022-12-18T03:07:23;151.45;;;39.80;;
46322;SDS011;32044;52.386;13.278;2022-12-18T03:09:53;140.70;;;38.88;;
46322;SDS011;32044;52.386;13.278;2022-12-18T03:12:21;156.10;;;41.40;;
46322;SDS011;32044;52.386;13.278;2022-12-18T03:15:00;142.25;;;38.17;;
46322;SDS011;32044;52.386;13.278;2022-12-18T03:17:30;152.60;;;41.42;;
46322;SDS011;32044;52.386;13.278;2022-12-18T03:19:56;147.02;;;41.38;;
46322;SDS011;32044;52.386;13.278;2022-12-18T03:22:24;149.25;;;40.15;;
46322;SDS011;32044;52.386;13.278;2022-12-18T03:24:52;158.80;;;40.08;;
46322;SDS011;32044;52.386;13.278;2022-12-18T03:27:19;137.45;;;38.53;;
46322;SDS011;32044;52.386;13.278;2022-12-18T03:29:46;157.93;;;42.03;;
46322;SDS011;32044;52.386;13.278;2022-12-18T03:32:20;160.93;;;39.33;;
46322;SDS011;32044;52.386;13.278;2022-12-18T03:34:50;160.80;;;41.38;;
46322;SDS011;32044;52.386;13.278;2022-12-18T03:37:16;154.73;;;39.35;;
46322;SDS011;32044;52.386;13.278;2022-12-18T03:39:41;156.48;;;40.80;;
46322;SDS011;32044;52.386;13.278;2022-12-18T03:42:09;162.20;;;42.90;;
46322;SDS011;32044;52.386;13.278;2022-12-18T03:44:43;145.93;;;41.65;;
46322;SDS011;32044;52.386;13.278;2022-12-18T03:47:17;145.30;;;38.22;;
46322;SDS011;32044;52.386;13.278;2022-12-18T03:54:51;156.80;;;40.78;;
46322;SDS011;32044;52.386;13.278;2022-12-18T03:57:19;149.88;;;38.47;;
46322;SDS011;32044;52.386;13.278;2022-12-18T03:59:47;147.98;;;39.15;;
46322;SDS011;32044;52.386;13.278;2022-12-18T04:02:15;155.75;;;42.47;;
46322;SDS011;32044;52.386;13.278;2022-12-18T04:04:41;140.50;;;39.00;;
46322;SDS011;32044;52.386;13.278;2022-12-18T04:07:07;153.63;;;41.45;;
46322;SDS011;32044;52.386;13.278;2022-12-18T04:09:33;131.20;;;37.00;;
46322;SDS011;32044;52.386;13.278;2022-12-18T04:11:59;139.75;;;38.70;;
46322;SDS011;32044;52.386;13.278;2022-12-18T04:14:24;136.60;;;40.33;;
46322;SDS011;32044;52.386;13.278;2022-12-18T04:16:50;136.27;;;37.72;;
46322;SDS011;32044;52.386;13.278;2022-12-18T04:19:15;124.70;;;36.00;;
46322;SDS011;32044;52.386;13.278;2022-12-18T04:21:40;118.57;;;35.22;;
46322;SDS011;32044;52.386;13.278;2022-12-18T04:24:05;126.63;;;36.35;;
46322;SDS011;32044;52.386;13.278;2022-12-18T04:26:31;126.78;;;35.35;;
46322;SDS011;32044;52.386;13.278;2022-12-18T04:28:56;134.85;;;37.83;;
46322;SDS011;32044;52.386;13.278;2022-12-18T04:31:21;113.85;;;35.03;;
46322;SDS011;32044;52.386;13.278;2022-12-18T04:33:47;125.68;;;34.95;;
46322;SDS011;32044;52.386;13.278;2022-12-18T04:36:12;141.80;;;37.70;;
46322;SDS011;32044;52.386;13.278;2022-12-18T04:38:37;123.97;;;34.58;;
46322;SDS011;32044;52.386;13.278;2022-12-18T04:41:03;120.50;;;35.22;;
46322;SDS011;32044;52.386;13.278;2022-12-18T04:43:28;116.60;;;33.25;;
46322;SDS011;32044;52.386;13.278;2022-12-18T04:45:53;140.52;;;36.05;;
46322;SDS011;32044;52.386;13.278;2022-12-18T04:48:18;128.50;;;36.58;;
46322;SDS011;32044;52.386;13.278;2022-12-18T04:50:45;131.23;;;38.55;;
46322;SDS011;32044;52.386;13.278;2022-12-18T04:53:11;142.15;;;38.38;;
46322;SDS011;32044;52.386;13.278;2022-12-18T04:55:36;125.25;;;37.42;;
46322;SDS011;32044;52.386;13.278;2022-12-18T04:58:02;125.97;;;36.20;;
46322;SDS011;32044;52.386;13.278;2022-12-18T05:00:27;121.07;;;37.65;;
46322;SDS011;32044;52.386;13.278;2022-12-18T05:02:52;117.75;;;36.00;;
46322;SDS011;32044;52.386;13.278;2022-12-18T05:05:18;122.45;;;35.25;;
46322;SDS011;32044;52.386;13.278;2022-12-18T05:07:43;120.47;;;34.67;;
46322;SDS011;32044;52.386;13.278;2022-12-18T05:10:08;109.82;;;31.15;;
46322;SDS011;32044;52.386;13.278;2022-12-18T05:12:34;104.40;;;33.05;;
46322;SDS011;32044;52.386;13.278;2022-12-18T05:15:19;102.18;;;32.53;;
46322;SDS011;32044;52.386;13.278;2022-12-18T05:17:44;88.50;;;31.30;;
46322;SDS011;32044;52.386;13.278;2022-12-18T05:20:10;90.03;;;31.80;;
46322;SDS011;32044;52.386;13.278;2022-12-18T05:22:35;91.18;;;28.88;;
46322;SDS011;32044;52.386;13.278;2022-12-18T05:25:00;97.18;;;32.10;;
46322;SDS011;32044;52.386;13.278;2022-12-18T05:27:26;89.28;;;29.33;;
46322;SDS011;32044;52.386;13.278;2022-12-18T05:29:51;88.78;;;31.75;;
46322;SDS011;32044;52.386;13.278;2022-12-18T05:32:16;90.45;;;29.70;;
46322;SDS011;32044;52.386;13.278;2022-12-18T05:34:41;83.90;;;29.35;;
46322;SDS011;32044;52.386;13.278;2022-12-18T05:37:07;88.80;;;29.77;;
46322;SDS011;32044;52.386;13.278;2022-12-18T05:39:32;82.60;;;28.23;;
46322;SDS011;32044;52.386;13.278;2022-12-18T05:41:57;76.03;;;27.05;;
46322;SDS011;32044;52.386;13.278;2022-12-18T05:44:23;80.20;;;28.17;;
46322;SDS011;32044;52.386;13.278;2022-12-18T05:46:48;102.35;;;30.77;;
46322;SDS011;32044;52.386;13.278;2022-12-18T05:49:13;90.47;;;29.85;;
46322;SDS011;32044;52.386;13.278;2022-12-18T05:51:38;86.40;;;28.65;;
46322;SDS011;32044;52.386;13.278;2022-12-18T05:54:04;104.97;;;30.17;;
46322;SDS011;32044;52.386;13.278;2022-12-18T05:56:29;97.35;;;32.38;;
46322;SDS011;32044;52.386;13.278;2022-12-18T05:58:54;95.45;;;30.25;;
46322;SDS011;32044;52.386;13.278;2022-12-18T06:01:21;92.25;;;30.40;;
46322;SDS011;32044;52.386;13.278;2022-12-18T06:03:48;95.13;;;31.85;;
46322;SDS011;32044;52.386;13.278;2022-12-18T06:06:15;107.15;;;33.25;;
46322;SDS011;32044;52.386;13.278;2022-12-18T06:08:47;97.25;;;31.02;;
46322;SDS011;32044;52.386;13.278;2022-12-18T06:11:13;106.00;;;31.90;;
46322;SDS011;32044;52.386;13.278;2022-12-18T06:13:40;93.68;;;30.27;;
46322;SDS011;32044;52.386;13.278;2022-12-18T06:16:06;103.57;;;32.90;;
46322;SDS011;32044;52.386;13.278;2022-12-18T06:18:32;112.25;;;36.25;;
46322;SDS011;32044;52.386;13.278;2022-12-18T06:20:58;108.22;;;33.67;;
46322;SDS011;32044;52.386;13.278;2022-12-18T06:23:24;109.05;;;32.70;;
46322;SDS011;32044;52.386;13.278;2022-12-18T06:25:49;121.88;;;34.50;;
46322;SDS011;32044;52.386;13.278;2022-12-18T06:28:15;112.78;;;35.05;;
46322;SDS011;32044;52.386;13.278;2022-12-18T06:30:42;103.93;;;34.92;;
46322;SDS011;32044;52.386;13.278;2022-12-18T06:33:08;103.90;;;32.20;;
46322;SDS011;32044;52.386;13.278;2022-12-18T06:35:33;107.70;;;34.63;;
46322;SDS011;32044;52.386;13.278;2022-12-18T06:38:00;106.32;;;35.20;;
46322;SDS011;32044;52.386;13.278;2022-12-18T06:40:26;116.00;;;35.25;;
46322;SDS011;32044;52.386;13.278;2022-12-18T06:42:51;123.95;;;34.78;;
46322;SDS011;32044;52.386;13.278;2022-12-18T06:45:16;129.73;;;34.33;;
46322;SDS011;32044;52.386;13.278;2022-12-18T06:47:42;125.32;;;35.58;;
46322;SDS011;32044;52.386;13.278;2022-12-18T06:50:07;113.47;;;34.03;;
46322;SDS011;32044;52.386;13.278;2022-12-18T06:52:33;120.03;;;32.17;;
46322;SDS011;32044;52.386;13.278;2022-12-18T06:54:58;132.85;;;33.38;;
46322;SDS011;32044;52.386;13.278;2022-12-18T06:57:23;110.88;;;34.55;;
46322;SDS011;32044;52.386;13.278;2022-12-18T06:59:49;111.88;;;34.72;;
46322;SDS011;32044;52.386;13.278;2022-12-18T07:02:14;116.68;;;35.42;;
46322;SDS011;32044;52.386;13.278;2022-12-18T07:04:39;106.80;;;34.55;;
46322;SDS011;32044;52.386;13.278;2022-12-18T07:07:05;105.65;;;34.60;;
46322;SDS011;32044;52.386;13.278;2022-12-18T07:09:30;109.78;;;35.47;;
46322;SDS011;32044;52.386;13.278;2022-12-18T07:11:55;117.88;;;33.85;;
46322;SDS011;32044;52.386;13.278;2022-12-18T07:14:20;118.05;;;35.88;;
46322;SDS011;32044;52.386;13.278;2022-12-18T07:16:46;118.13;;;33.28;;
46322;SDS011;32044;52.386;13.278;2022-12-18T07:19:11;124.53;;;35.10;;
46322;SDS011;32044;52.386;13.278;2022-12-18T07:21:36;111.55;;;34.25;;
46322;SDS011;32044;52.386;13.278;2022-12-18T07:24:02;106.32;;;33.47;;
46322;SDS011;32044;52.386;13.278;2022-12-18T07:26:27;134.88;;;35.00;;
46322;SDS011;32044;52.386;13.278;2022-12-18T07:28:54;129.63;;;38.35;;
46322;SDS011;32044;52.386;13.278;2022-12-18T07:31:21;138.98;;;39.85;;
46322;SDS011;32044;52.386;13.278;2022-12-18T07:33:46;139.98;;;39.22;;
46322;SDS011;32044;52.386;13.278;2022-12-18T07:36:13;160.10;;;41.63;;
46322;SDS011;32044;52.386;13.278;2022-12-18T07:38:38;169.10;;;42.80;;
46322;SDS011;32044;52.386;13.278;2022-12-18T07:41:05;183.50;;;48.65;;
46322;SDS011;32044;52.386;13.278;2022-12-18T07:43:32;183.75;;;48.15;;
46322;SDS011;32044;52.386;13.278;2022-12-18T07:45:57;177.63;;;45.17;;
46322;SDS011;32044;52.386;13.278;2022-12-18T07:48:23;173.75;;;45.72;;
46322;SDS011;32044;52.386;13.278;2022-12-18T07:50:48;166.48;;;45.30;;
46322;SDS011;32044;52.386;13.278;2022-12-18T07:53:13;159.90;;;44.95;;
46322;SDS011;32044;52.386;13.278;2022-12-18T07:55:39;170.93;;;45.22;;
46322;SDS011;32044;52.386;13.278;2022-12-18T07:58:04;140.05;;;41.28;;
46322;SDS011;32044;52.386;13.278;2022-12-18T08:00:30;143.13;;;41.58;;
46322;SDS011;32044;52.386;13.278;2022-12-18T08:02:56;126.15;;;37.53;;
46322;SDS011;32044;52.386;13.278;2022-12-18T08:05:21;111.88;;;34.67;;
46322;SDS011;32044;52.386;13.278;2022-12-18T08:07:47;117.90;;;36.30;;
46322;SDS011;32044;52.386;13.278;2022-12-18T08:10:12;121.80;;;34.80;;
46322;SDS011;32044;52.386;13.278;2022-12-18T08:12:38;125.40;;;38.42;;
46322;SDS011;32044;52.386;13.278;2022-12-18T08:15:03;119.80;;;34.35;;
46322;SDS011;32044;52.386;13.278;2022-12-18T08:17:29;123.03;;;36.00;;
46322;SDS011;32044;52.386;13.278;2022-12-18T08:19:54;107.47;;;32.92;;
46322;SDS011;32044;52.386;13.278;2022-12-18T08:22:20;101.28;;;32.35;;
46322;SDS011;32044;52.386;13.278;2022-12-18T08:24:45;99.78;;;31.70;;
46322;SDS011;32044;52.386;13.278;2022-12-18T08:27:10;105.28;;;31.70;;
46322;SDS011;32044;52.386;13.278;2022-12-18T08:29:35;103.88;;;31.83;;
46322;SDS011;32044;52.386;13.278;2022-12-18T08:32:01;100.57;;;32.33;;
46322;SDS011;32044;52.386;13.278;2022-12-18T08:34:26;98.68;;;31.58;;
46322;SDS011;32044;52.386;13.278;2022-12-18T08:36:51;111.55;;;35.22;;
46322;SDS011;32044;52.386;13.278;2022-12-18T08:39:16;103.57;;;32.85;;
46322;SDS011;32044;52.386;13.278;2022-12-18T08:41:42;115.35;;;35.45;;
46322;SDS011;32044;52.386;13.278;2022-12-18T08:44:07;106.63;;;35.25;;
46322;SDS011;32044;52.386;13.278;2022-12-18T08:46:52;115.28;;;36.30;;
46322;SDS011;32044;52.386;13.278;2022-12-18T08:49:17;104.25;;;33.95;;
46322;SDS011;32044;52.386;13.278;2022-12-18T08:51:42;107.80;;;34.85;;
46322;SDS011;32044;52.386;13.278;2022-12-18T08:54:08;101.43;;;33.88;;
46322;SDS011;32044;52.386;13.278;2022-12-18T08:56:36;122.07;;;35.83;;
46322;SDS011;32044;52.386;13.278;2022-12-18T08:59:02;108.15;;;34.92;;
46322;SDS011;32044;52.386;13.278;2022-12-18T09:01:27;105.43;;;34.42;;
46322;SDS011;32044;52.386;13.278;2022-12-18T09:03:53;101.53;;;34.63;;
46322;SDS011;32044;52.386;13.278;2022-12-18T09:06:19;110.55;;;35.00;;
46322;SDS011;32044;52.386;13.278;2022-12-18T09:08:45;111.85;;;34.53;;
46322;SDS011;32044;52.386;13.278;2022-12-18T09:11:12;95.28;;;33.25;;
46322;SDS011;32044;52.386;13.278;2022-12-18T09:13:38;103.55;;;33.65;;
46322;SDS011;32044;52.386;13.278;2022-12-18T09:16:04;94.15;;;31.33;;
46322;SDS011;32044;52.386;13.278;2022-12-18T09:18:29;96.72;;;33.60;;
46322;SDS011;32044;52.386;13.278;2022-12-18T09:20:55;88.97;;;32.25;;
46322;SDS011;32044;52.386;13.278;2022-12-18T09:23:20;88.57;;;32.90;;
46322;SDS011;32044;52.386;13.278;2022-12-18T09:25:46;102.50;;;31.95;;
46322;SDS011;32044;52.386;13.278;2022-12-18T09:28:16;98.97;;;35.05;;
46322;SDS011;32044;52.386;13.278;2022-12-18T09:30:44;72.13;;;25.17;;
46322;SDS011;32044;52.386;13.278;2022-12-18T09:33:11;97.97;;;33.75;;
46322;SDS011;32044;52.386;13.278;2022-12-18T09:35:36;102.82;;;34.92;;
46322;SDS011;32044;52.386;13.278;2022-12-18T09:38:02;103.68;;;35.63;;
46322;SDS011;32044;52.386;13.278;2022-12-18T09:40:28;106.43;;;35.17;;
46322;SDS011;32044;52.386;13.278;2022-12-18T09:42:59;102.70;;;35.15;;
46322;SDS011;32044;52.386;13.278;2022-12-18T09:45:26;111.78;;;36.33;;
46322;SDS011;32044;52.386;13.278;2022-12-18T09:47:52;111.18;;;36.97;;
46322;SDS011;32044;52.386;13.278;2022-12-18T09:53:02;96.70;;;35.35;;
46322;SDS011;32044;52.386;13.278;2022-12-18T09:55:34;69.00;;;23.00;;
46322;SDS011;32044;52.386;13.278;2022-12-18T09:58:16;91.88;;;30.55;;
46322;SDS011;32044;52.386;13.278;2022-12-18T10:00:45;81.28;;;30.75;;
46322;SDS011;32044;52.386;13.278;2022-12-18T10:03:14;90.00;;;32.17;;
46322;SDS011;32044;52.386;13.278;2022-12-18T10:05:43;98.18;;;34.30;;
46322;SDS011;32044;52.386;13.278;2022-12-18T10:08:35;101.25;;;33.22;;
46322;SDS011;32044;52.386;13.278;2022-12-18T10:14:04;87.10;;;30.77;;
46322;SDS011;32044;52.386;13.278;2022-12-18T10:16:52;88.93;;;31.85;;
46322;SDS011;32044;52.386;13.278;2022-12-18T10:19:33;96.15;;;31.45;;
46322;SDS011;32044;52.386;13.278;2022-12-18T10:25:50;88.63;;;31.08;;
46322;SDS011;32044;52.386;13.278;2022-12-18T10:27:51;92.35;;;31.83;;
46322;SDS011;32044;52.386;13.278;2022-12-18T10:30:20;85.88;;;31.23;;
46322;SDS011;32044;52.386;13.278;2022-12-18T10:32:46;87.13;;;29.55;;
46322;SDS011;32044;52.386;13.278;2022-12-18T10:35:15;91.50;;;30.52;;
46322;SDS011;32044;52.386;13.278;2022-12-18T10:38:03;82.13;;;27.80;;
46322;SDS011;32044;52.386;13.278;2022-12-18T10:40:31;86.25;;;29.27;;
46322;SDS011;32044;52.386;13.278;2022-12-18T10:43:03;88.60;;;29.10;;
46322;SDS011;32044;52.386;13.278;2022-12-18T10:45:29;72.80;;;28.00;;
46322;SDS011;32044;52.386;13.278;2022-12-18T10:47:54;82.68;;;29.92;;
46322;SDS011;32044;52.386;13.278;2022-12-18T10:50:22;89.20;;;29.90;;
46322;SDS011;32044;52.386;13.278;2022-12-18T10:52:55;87.80;;;28.42;;
46322;SDS011;32044;52.386;13.278;2022-12-18T10:55:21;87.32;;;27.05;;
46322;SDS011;32044;52.386;13.278;2022-12-18T10:57:46;83.35;;;28.83;;
46322;SDS011;32044;52.386;13.278;2022-12-18T11:00:25;83.97;;;29.10;;
46322;SDS011;32044;52.386;13.278;2022-12-18T11:02:52;88.88;;;30.80;;
46322;SDS011;32044;52.386;13.278;2022-12-18T11:05:28;88.32;;;30.50;;
46322;SDS011;32044;52.386;13.278;2022-12-18T11:07:54;83.32;;;30.23;;
46322;SDS011;32044;52.386;13.278;2022-12-18T11:10:21;84.85;;;30.30;;
46322;SDS011;32044;52.386;13.278;2022-12-18T11:12:48;91.90;;;31.92;;
46322;SDS011;32044;52.386;13.278;2022-12-18T11:15:19;94.40;;;31.95;;
46322;SDS011;32044;52.386;13.278;2022-12-18T11:17:46;90.90;;;29.73;;
46322;SDS011;32044;52.386;13.278;2022-12-18T11:20:25;98.88;;;32.75;;
46322;SDS011;32044;52.386;13.278;2022-12-18T11:22:55;91.65;;;29.27;;
46322;SDS011;32044;52.386;13.278;2022-12-18T11:25:22;87.13;;;30.05;;
46322;SDS011;32044;52.386;13.278;2022-12-18T11:27:48;80.00;;;30.58;;
46322;SDS011;32044;52.386;13.278;2022-12-18T11:33:10;89.60;;;29.90;;
46322;SDS011;32044;52.386;13.278;2022-12-18T11:35:42;80.00;;;26.90;;
46322;SDS011;32044;52.386;13.278;2022-12-18T11:40:43;78.47;;;25.52;;
46322;SDS011;32044;52.386;13.278;2022-12-18T11:43:15;80.70;;;28.33;;
46322;SDS011;32044;52.386;13.278;2022-12-18T11:45:47;87.05;;;31.13;;
46322;SDS011;32044;52.386;13.278;2022-12-18T11:48:21;77.13;;;28.83;;
46322;SDS011;32044;52.386;13.278;2022-12-18T11:50:49;95.97;;;31.88;;
46322;SDS011;32044;52.386;13.278;2022-12-18T11:53:19;83.80;;;31.23;;
46322;SDS011;32044;52.386;13.278;2022-12-18T11:59:15;79.68;;;31.55;;
46322;SDS011;32044;52.386;13.278;2022-12-18T12:01:50;83.38;;;29.73;;
46322;SDS011;32044;52.386;13.278;2022-12-18T12:16:03;74.57;;;27.65;;
46322;SDS011;32044;52.386;13.278;2022-12-18T12:18:37;73.13;;;29.17;;
46322;SDS011;32044;52.386;13.278;2022-12-18T12:29:59;62.95;;;24.52;;
46322;SDS011;32044;52.386;13.278;2022-12-18T12:32:45;60.55;;;26.23;;
46322;SDS011;32044;52.386;13.278;2022-12-18T12:35:33;51.75;;;22.83;;
46322;SDS011;32044;52.386;13.278;2022-12-18T12:38:09;56.17;;;22.05;;
46322;SDS011;32044;52.386;13.278;2022-12-18T12:44:57;52.83;;;22.48;;
46322;SDS011;32044;52.386;13.278;2022-12-18T12:47:15;59.17;;;23.17;;
46322;SDS011;32044;52.386;13.278;2022-12-18T12:49:45;61.40;;;24.88;;
46322;SDS011;32044;52.386;13.278;2022-12-18T12:52:14;59.10;;;24.65;;
46322;SDS011;32044;52.386;13.278;2022-12-18T12:54:41;61.97;;;26.33;;
46322;SDS011;32044;52.386;13.278;2022-12-18T12:59:55;70.05;;;26.80;;
46322;SDS011;32044;52.386;13.278;2022-12-18T13:05:03;53.60;;;23.73;;
46322;SDS011;32044;52.386;13.278;2022-12-18T13:07:39;63.17;;;23.88;;
46322;SDS011;32044;52.386;13.278;2022-12-18T13:13:01;63.33;;;27.48;;
46322;SDS011;32044;52.386;13.278;2022-12-18T13:15:34;66.85;;;27.38;;
46322;SDS011;32044;52.386;13.278;2022-12-18T13:20:35;64.53;;;26.45;;
46322;SDS011;32044;52.386;13.278;2022-12-18T13:25:49;56.53;;;23.30;;
46322;SDS011;32044;52.386;13.278;2022-12-18T13:28:20;65.50;;;25.90;;
46322;SDS011;32044;52.386;13.278;2022-12-18T13:38:33;63.50;;;27.73;;
46322;SDS011;32044;52.386;13.278;2022-12-18T13:43:53;69.45;;;29.35;;
46322;SDS011;32044;52.386;13.278;2022-12-18T13:46:28;79.32;;;34.35;;
46322;SDS011;32044;52.386;13.278;2022-12-18T13:48:55;71.95;;;30.90;;
46322;SDS011;32044;52.386;13.278;2022-12-18T13:51:41;81.65;;;31.88;;
46322;SDS011;32044;52.386;13.278;2022-12-18T13:54:19;66.13;;;29.20;;
46322;SDS011;32044;52.386;13.278;2022-12-18T13:56:47;66.32;;;27.75;;
46322;SDS011;32044;52.386;13.278;2022-12-18T14:01:52;49.92;;;22.40;;
46322;SDS011;32044;52.386;13.278;2022-12-18T14:04:29;70.03;;;31.85;;
46322;SDS011;32044;52.386;13.278;2022-12-18T14:07:01;73.13;;;32.13;;
46322;SDS011;32044;52.386;13.278;2022-12-18T14:09:29;77.30;;;32.78;;
46322;SDS011;32044;52.386;13.278;2022-12-18T14:11:56;96.65;;;34.10;;
46322;SDS011;32044;52.386;13.278;2022-12-18T14:14:43;83.82;;;33.88;;
46322;SDS011;32044;52.386;13.278;2022-12-18T14:17:10;89.32;;;34.97;;
46322;SDS011;32044;52.386;13.278;2022-12-18T14:19:36;82.00;;;33.88;;
46322;SDS011;32044;52.386;13.278;2022-12-18T14:22:01;87.60;;;34.75;;
46322;SDS011;32044;52.386;13.278;2022-12-18T14:24:27;95.82;;;38.25;;
46322;SDS011;32044;52.386;13.278;2022-12-18T14:26:53;101.80;;;35.47;;
46322;SDS011;32044;52.386;13.278;2022-12-18T14:29:28;106.75;;;39.30;;
46322;SDS011;32044;52.386;13.278;2022-12-18T14:34:30;128.82;;;44.10;;
46322;SDS011;32044;52.386;13.278;2022-12-18T14:36:56;134.27;;;43.47;;
46322;SDS011;32044;52.386;13.278;2022-12-18T14:39:21;122.68;;;45.72;;
46322;SDS011;32044;52.386;13.278;2022-12-18T14:41:48;129.63;;;45.92;;
46322;SDS011;32044;52.386;13.278;2022-12-18T14:44:13;126.63;;;45.08;;
46322;SDS011;32044;52.386;13.278;2022-12-18T14:46:39;140.63;;;49.85;;
46322;SDS011;32044;52.386;13.278;2022-12-18T14:49:27;144.73;;;46.42;;
46322;SDS011;32044;52.386;13.278;2022-12-18T14:51:58;142.60;;;50.20;;
46322;SDS011;32044;52.386;13.278;2022-12-18T14:54:24;160.30;;;51.97;;
46322;SDS011;32044;52.386;13.278;2022-12-18T14:57:35;139.35;;;48.40;;
46322;SDS011;32044;52.386;13.278;2022-12-18T14:59:48;162.05;;;50.90;;
46322;SDS011;32044;52.386;13.278;2022-12-18T15:02:22;152.52;;;51.60;;
46322;SDS011;32044;52.386;13.278;2022-12-18T15:04:59;152.98;;;52.97;;
46322;SDS011;32044;52.386;13.278;2022-12-18T15:07:50;144.77;;;51.25;;
46322;SDS011;32044;52.386;13.278;2022-12-18T15:12:47;148.68;;;49.22;;
46322;SDS011;32044;52.386;13.278;2022-12-18T15:23:17;105.97;;;42.83;;
46322;SDS011;32044;52.386;13.278;2022-12-18T15:25:46;109.25;;;42.65;;
46322;SDS011;32044;52.386;13.278;2022-12-18T15:28:18;111.88;;;41.50;;
46322;SDS011;32044;52.386;13.278;2022-12-18T15:31:00;106.90;;;42.15;;
46322;SDS011;32044;52.386;13.278;2022-12-18T15:33:31;107.68;;;41.55;;
46322;SDS011;32044;52.386;13.278;2022-12-18T15:35:58;102.70;;;39.53;;
46322;SDS011;32044;52.386;13.278;2022-12-18T15:38:25;101.45;;;40.22;;
46322;SDS011;32044;52.386;13.278;2022-12-18T15:40:51;97.30;;;37.83;;
46322;SDS011;32044;52.386;13.278;2022-12-18T15:43:17;96.97;;;37.70;;
46322;SDS011;32044;52.386;13.278;2022-12-18T15:45:58;112.80;;;41.72;;
46322;SDS011;32044;52.386;13.278;2022-12-18T15:48:24;97.57;;;38.05;;